Tampa, FL

09:06 AM EDT on Αύγουστος 30, 2016 (GMT -0400)
MacDill Air Force Base | | Change Station

Elev 13 ft 27.85 °N, 82.52 °W | Updated 8 minutes ago

Scattered Clouds
Διάσπαρτα Νέφη
80 ° F
Feels Like 80 ° F
N
10
Ανεμος Μεταβλητός Ανεμος from ΑΝΑ

Σήμερα
High -- | Low -- ° F
--% Chance of Precip.
Yesterday
High -- | Low -- ° F
Precip. -- in
Ατμοσφαιρική Πίεση 29.93 in
Ορατότητα 10.0 Μίλια
Σύννεφα Διάσπαρτα Νέφη 900 ft
Σημείο Δρόσου 80 ° F
Υγρασία 100%
Rainfall 0.00 in
Snow Depth Not available.
7:08 AM 7:52 PM
Μηνίσκος, 4% visible
METAR KMCF 301258Z AUTO 11009KT 10SM SCT009 27/27 A2992 RMK AO2 SLP135 T02660266
Ατμοσφαιρική Πίεση 29.93 in
Ορατότητα 10.0 Μίλια
Σύννεφα Διάσπαρτα Νέφη 900 ft
Σημείο Δρόσου 80 ° F
Υγρασία 100%
Rainfall 0.00 in
Snow Depth Not available.
7:08 AM 7:52 PM
Μηνίσκος, 4% visible
METAR KMCF 301258Z AUTO 11009KT 10SM SCT009 27/27 A2992 RMK AO2 SLP135 T02660266

10-Day Weather Forecast

Almanac

Αστρονομία

Aug. 30, 2016 Rise Set
Actual Time
Civil Twilight
Nautical Twilight
Astronomical Twilight
Moon
Length Of Visible Light
Διάρκεια ημέρας
Tomorrow will be .
, % of the Moon is Illuminated

Today's Extremes

State Highs State Lows

Community

WunderPhotos

Upload Photos

1,935,828 photos uploaded!

WunderBlog® & News

Nearby

Air Quality

  Air Quality AQ Index Pollutant
Not available.

Snow Depth

Station Depth Elevation

Earthquake Activity

City Distance Mag. Time & Date
Minimum magnitude displayed is 2.5.

Coastal Water Temperatures

Τοποθεσία Θερμοκρασία

Stations

Nearby Weather Stations

Station Location Temp Δείκτης Ψυχρότητας Σημείο Δρόσου Υγρασία Ανεμος Precip. Elev Ενημερώθηκε Type
                   

Watches & Warnings

There are currently no watches in effect.